Bookmark and Share
Track history (hours):
 

Tuuq

More information available from US FCC via Universal Licensing System and Coast Guard Vessel Documentation Center.

Last reported at 2012-Jul-16 21:26 UTC. Time now 2014-Apr-24 04:12 UTC.
Position N 49°05' W 126°32'.
Warning: this ship's position is years out of date!

Length 122 m; draft 5.7 m.

Type: Other ship. MMSI: 367537760.

NotesDate/timePositionNaut miles runAvg speedWind from/ knotsBaromVisibWave heightAir tempDewpointWater temp
2012-Jul-16 21:26N 49°05' W 126°32'15 7.7
2012-Jul-16 19:29N 48°56' W 126°14'8 8.1
2012-Jul-16 18:31N 48°51' W 126°06'8 7.8
2012-Jul-16 17:33N 48°47' W 125°56'7 7.5
2012-Jul-16 16:33N 48°45' W 125°45'8 7.6
2012-Jul-16 15:33N 48°45' W 125°33'8 8.1
2012-Jul-16 14:33N 48°44' W 125°21'9 8.7
2012-Jul-16 13:34N 48°40' W 125°09'111 8.5
2012-Jul-16 00:32N 47°58' W 122°34'9 9.3
2012-Jul-15 23:33N 47°51' W 122°27'3 9.5
2012-Jul-15 23:13N 47°47' W 122°26'6 9.9
2012-Jul-15 22:33N 47°41' W 122°27'4 8.4
2012-Jul-15 22:02N 47°37' W 122°24'1 2.0
2012-Jul-15 21:33N 47°37' W 122°23'0 0.8
2012-Jul-15 21:02N 47°38' W 122°23'0 0.0
2012-Jul-15 20:33N 47°38' W 122°23'0 0.0
2012-Jul-15 19:52N 47°38' W 122°23'0 0.0
2012-Jul-15 19:33N 47°38' W 122°23'0 0.0
2012-Jul-15 18:42N 47°38' W 122°23'0 0.0
2012-Jul-15 18:33N 47°38' W 122°23'0 0.0
2012-Jul-15 17:59N 47°38' W 122°23'0 0.0
2012-Jul-15 17:33N 47°38' W 122°23'0 0.0
2012-Jul-15 16:49N 47°38' W 122°23'0 0.0
2012-Jul-15 16:33N 47°38' W 122°23'0 0.0
2012-Jul-15 15:33N 47°38' W 122°23'0 0.0
2012-Jul-15 14:33N 47°38' W 122°23'0 0.0
2012-Jul-15 14:26N 47°38' W 122°23'0 0.0
2012-Jul-15 13:33N 47°38' W 122°23'0 0.0
2012-Jul-15 13:10N 47°38' W 122°23'0 0.0
2012-Jul-15 12:33N 47°38' W 122°23'0 0.0
2012-Jul-15 12:05N 47°38' W 122°23'0 0.0
2012-Jul-15 11:32N 47°38' W 122°23'0 0.0
2012-Jul-15 10:55N 47°38' W 122°23'0 0.0
2012-Jul-15 10:35N 47°38' W 122°23'0 0.0
2012-Jul-15 09:44N 47°38' W 122°23'0 0.0
2012-Jul-15 09:33N 47°38' W 122°23'0 0.0
2012-Jul-15 08:39N 47°38' W 122°23'0 0.0
2012-Jul-15 08:31N 47°38' W 122°23'0 0.0
2012-Jul-15 08:30N 47°38' W 122°23'0 0.0
2012-Jul-15 07:32N 47°38' W 122°23'0 0.0
2012-Jul-15 07:29N 47°38' W 122°23'0 0.0
2012-Jul-15 06:33N 47°38' W 122°23'0 0.0
2012-Jul-15 06:33N 47°38' W 122°23'0 0.0
2012-Jul-15 05:33N 47°38' W 122°23'0 0.0
2012-Jul-15 05:32N 47°38' W 122°23'0 0.0
2012-Jul-15 04:36N 47°38' W 122°23'0 0.0
2012-Jul-15 04:21N 47°38' W 122°23'0 0.0
2012-Jul-15 03:32N 47°38' W 122°23'0 0.0
2012-Jul-15 03:11N 47°38' W 122°23'0 0.0
2012-Jul-15 02:32N 47°38' W 122°23'0 0.0
2012-Jul-15 01:37N 47°38' W 122°23'0 0.0
2012-Jul-15 01:33N 47°38' W 122°23'0 0.0
2012-Jul-15 01:33N 47°38' W 122°23'0 0.0
2012-Jul-15 00:33N 47°38' W 122°23'0 0.1
2012-Jul-15 00:27N 47°38' W 122°23'0 0.0
2012-Jul-14 23:33N 47°38' W 122°23'0 0.0
2012-Jul-14 23:21N 47°38' W 122°23'0 0.0
2012-Jul-14 22:32N 47°38' W 122°23'0 0.0
2012-Jul-14 22:11N 47°38' W 122°23'0 0.0
2012-Jul-14 21:33N 47°38' W 122°23'0 0.0
2012-Jul-14 21:00N 47°38' W 122°23'0 0.0
2012-Jul-14 20:32N 47°38' W 122°23'0 0.0
2012-Jul-14 19:45N 47°38' W 122°23'0 0.0
2012-Jul-14 19:31N 47°38' W 122°23'0 0.0
2012-Jul-14 18:40N 47°38' W 122°23'0 0.0
2012-Jul-14 18:31N 47°38' W 122°23'0 0.0
2012-Jul-14 18:31N 47°38' W 122°23'0 0.0
2012-Jul-14 17:33N 47°38' W 122°23'0 0.0
2012-Jul-14 17:30N 47°38' W 122°23'0 0.0
2012-Jul-14 16:33N 47°38' W 122°23'0 0.0
2012-Jul-14 15:33N 47°38' W 122°23'0 0.0
2012-Jul-14 15:26N 47°38' W 122°23'0 0.0
2012-Jul-14 14:33N 47°38' W 122°23'0 0.0
2012-Jul-14 13:56N 47°38' W 122°23'0 0.0
2012-Jul-14 13:33N 47°38' W 122°23'0 0.0
2012-Jul-14 12:51N 47°38' W 122°23'0 0.0
2012-Jul-14 12:32N 47°38' W 122°23'0 0.0
2012-Jul-14 11:36N 47°38' W 122°23'0 0.0
2012-Jul-14 11:32N 47°38' W 122°23'0 0.0
2012-Jul-14 11:31N 47°38' W 122°23'0 0.0
2012-Jul-14 10:34N 47°38' W 122°23'0 0.0
2012-Jul-14 10:30N 47°38' W 122°23'0 0.0
2012-Jul-14 09:33N 47°38' W 122°23'0 1.0
2012-Jul-14 09:20N 47°38' W 122°23'1 0.7
2012-Jul-14 08:25N 47°37' W 122°23'0 0.6
2012-Jul-14 07:55N 47°37' W 122°23'0 0.3
2012-Jul-14 07:27N 47°37' W 122°23'5 5.0
2012-Jul-14 06:33N 47°41' W 122°26'3 9.5
2012-Jul-14 06:12N 47°44' W 122°25'4 6.8
2012-Jul-14 05:33N 47°49' W 122°25'6 6.6
2012-Jul-14 04:37N 47°54' W 122°21'6 5.8
2012-Jul-14 03:33N 47°59' W 122°14'0 0.3
2012-Jul-14 02:33N 47°58' W 122°14'0 0.0
2012-Jul-14 01:33N 47°58' W 122°14'0 0.0
2012-Jul-14 00:33N 47°58' W 122°14'0 0.0
2012-Jul-13 23:33N 47°58' W 122°14'0 0.0
2012-Jul-13 22:33N 47°58' W 122°14'0 0.0
2012-Jul-13 21:33N 47°58' W 122°14'0 0.0
2012-Jul-13 20:33N 47°58' W 122°14'0 0.0
2012-Jul-13 19:33N 47°58' W 122°14'0 0.0
2012-Jul-13 18:33N 47°58' W 122°14'0 0.0
2012-Jul-13 17:33N 47°58' W 122°14'0 0.0
2012-Jul-13 16:33N 47°58' W 122°14'0 0.0
2012-Jul-13 15:33N 47°58' W 122°14'0 0.0
2012-Jul-13 14:33N 47°58' W 122°14'0 0.0
2012-Jul-13 13:33N 47°58' W 122°14'0 0.0
2012-Jul-13 12:33N 47°58' W 122°14'0 0.0
2012-Jul-13 11:33N 47°58' W 122°14'0 0.0
2012-Jul-13 10:35N 47°58' W 122°14'0 0.0
2012-Jul-13 09:33N 47°58' W 122°14'0 0.0
2012-Jul-13 08:33N 47°58' W 122°14'0 0.0
2012-Jul-13 07:33N 47°58' W 122°14'0 0.0
2012-Jul-13 06:33N 47°58' W 122°14'0 0.0
2012-Jul-13 05:33N 47°58' W 122°14'0 0.0
2012-Jul-13 04:37N 47°58' W 122°14'0 0.0
2012-Jul-13 03:33N 47°58' W 122°14'0 0.0
2012-Jul-13 02:33N 47°58' W 122°14'0 0.0
2012-Jul-13 01:33N 47°58' W 122°14'0 0.0
2012-Jul-13 00:33N 47°58' W 122°14'0 0.0
2012-Jul-12 23:33N 47°58' W 122°14'0 0.0
2012-Jul-12 22:33N 47°58' W 122°14'0 0.0
2012-Jul-12 21:33N 47°58' W 122°14'0 0.0
2012-Jul-12 20:33N 47°58' W 122°14'0 0.0
2012-Jul-12 19:33N 47°58' W 122°14'0 0.0
2012-Jul-12 18:33N 47°58' W 122°14'0 0.0
2012-Jul-12 17:33N 47°58' W 122°14'0 0.0
2012-Jul-12 16:33N 47°58' W 122°14'0 0.0
2012-Jul-12 15:33N 47°58' W 122°14'0 0.0
2012-Jul-12 14:33N 47°58' W 122°14'0 0.0
2012-Jul-12 13:33N 47°58' W 122°14'0 0.0
2012-Jul-12 12:33N 47°58' W 122°14'0 0.0
2012-Jul-12 11:33N 47°58' W 122°14'0 0.0
2012-Jul-12 10:33N 47°58' W 122°14'0 0.0
2012-Jul-12 09:33N 47°58' W 122°14'0 0.0
2012-Jul-12 08:33N 47°58' W 122°14'0 0.0
2012-Jul-12 07:33N 47°58' W 122°14'0 0.0
2012-Jul-12 06:33N 47°58' W 122°14'0 0.0
2012-Jul-12 05:33N 47°58' W 122°14'0 0.0
2012-Jul-12 04:37N 47°58' W 122°14'0 0.0
2012-Jul-12 03:33N 47°58' W 122°14'0 0.0
2012-Jul-12 02:33N 47°58' W 122°14'0 0.0
2012-Jul-12 01:34N 47°58' W 122°14'0 0.0
2012-Jul-12 00:33N 47°58' W 122°14'0 0.0
2012-Jul-11 23:33N 47°58' W 122°14'0 0.0
2012-Jul-11 22:33N 47°58' W 122°14'0 0.0
2012-Jul-11 21:33N 47°58' W 122°14'0 0.0
2012-Jul-11 20:33N 47°58' W 122°14'0 0.0
2012-Jul-11 19:33N 47°58' W 122°14'0 0.0
2012-Jul-11 18:33N 47°58' W 122°14'0 0.0
2012-Jul-11 17:33N 47°58' W 122°14'0 0.0
2012-Jul-11 16:33N 47°58' W 122°14'0 0.0
2012-Jul-11 15:33N 47°58' W 122°14'0 0.0
2012-Jul-11 14:33N 47°58' W 122°14'0 0.0
2012-Jul-11 13:33N 47°58' W 122°14'0 0.0
2012-Jul-11 12:33N 47°58' W 122°14'0 0.0
2012-Jul-11 11:33N 47°58' W 122°14'0 0.0
2012-Jul-11 10:35N 47°58' W 122°14'0 0.0
2012-Jul-11 09:33N 47°58' W 122°14'0 0.0
2012-Jul-11 08:33N 47°58' W 122°14'0 0.0
2012-Jul-11 07:33N 47°58' W 122°14'0 0.0
2012-Jul-11 06:33N 47°58' W 122°14'0 0.0
2012-Jul-11 05:33N 47°58' W 122°14'0 0.0
2012-Jul-11 04:36N 47°58' W 122°14'0 0.0
2012-Jul-11 03:33N 47°58' W 122°14'0 0.0
2012-Jul-11 02:33N 47°58' W 122°14'0 0.0
2012-Jul-11 01:33N 47°58' W 122°14'0 0.0
2012-Jul-11 00:33N 47°58' W 122°14'0 0.0
2012-Jul-10 23:33N 47°58' W 122°14'0 0.0
2012-Jul-10 22:33N 47°58' W 122°14'0 0.0
2012-Jul-10 21:33N 47°58' W 122°14'0 0.0
2012-Jul-10 20:33N 47°58' W 122°14'0 0.0
2012-Jul-10 19:33N 47°58' W 122°14'0 0.0
2012-Jul-10 18:33N 47°58' W 122°14'0 0.0
2012-Jul-10 17:33N 47°58' W 122°14'0 0.0
2012-Jul-10 16:33N 47°58' W 122°14'0 0.0
2012-Jul-10 15:33N 47°58' W 122°14'0 0.0
2012-Jul-10 14:33N 47°58' W 122°14'0 0.0
2012-Jul-10 13:33N 47°58' W 122°14'0 0.0
2012-Jul-10 12:33N 47°58' W 122°14'0 0.0
2012-Jul-10 11:33N 47°58' W 122°14'0 0.0
2012-Jul-10 10:36N 47°58' W 122°14'0 0.0
2012-Jul-10 09:33N 47°58' W 122°14'0 0.0
2012-Jul-10 08:33N 47°58' W 122°14'0 0.0
2012-Jul-10 07:33N 47°58' W 122°14'0 0.0
2012-Jul-10 06:33N 47°58' W 122°14'0 0.0
2012-Jul-10 05:33N 47°58' W 122°14'0 0.0
2012-Jul-10 04:36N 47°58' W 122°14'0 0.0
2012-Jul-10 03:33N 47°58' W 122°14'0 0.0
2012-Jul-10 02:33N 47°58' W 122°14'0 0.0
2012-Jul-10 01:33N 47°58' W 122°14'0 0.0
2012-Jul-10 00:33N 47°58' W 122°14'0 0.0
2012-Jul-09 23:33N 47°58' W 122°14'0 0.0
2012-Jul-09 22:33N 47°58' W 122°14'0 0.0
2012-Jul-09 21:33N 47°58' W 122°14'0 0.0
2012-Jul-09 20:33N 47°58' W 122°14'0 0.0
2012-Jul-09 19:33N 47°58' W 122°14'0 0.0
2012-Jul-09 18:33N 47°58' W 122°14'0 0.0
2012-Jul-09 17:33N 47°58' W 122°14'0 0.0
2012-Jul-09 16:33N 47°58' W 122°14'0 0.0
2012-Jul-09 15:33N 47°58' W 122°14'0 0.0
2012-Jul-09 14:33N 47°58' W 122°14'0 0.0
2012-Jul-09 13:33N 47°58' W 122°14'0 0.0
2012-Jul-09 12:33N 47°58' W 122°14'0 0.0
2012-Jul-09 11:33N 47°58' W 122°14'0 0.0
2012-Jul-09 10:35N 47°58' W 122°14'0 0.0
2012-Jul-09 09:33N 47°58' W 122°14'0 0.0
2012-Jul-09 08:33N 47°58' W 122°14'0 0.0
2012-Jul-09 07:33N 47°58' W 122°14'0 0.0
2012-Jul-09 06:33N 47°58' W 122°14'0 0.0
2012-Jul-09 05:33N 47°58' W 122°14'0 0.0
2012-Jul-09 04:36N 47°58' W 122°14'0 0.0
2012-Jul-09 03:33N 47°58' W 122°14'0 0.0
2012-Jul-09 02:33N 47°58' W 122°14'0 0.0
2012-Jul-09 01:33N 47°58' W 122°14'0 0.0
2012-Jul-09 00:33N 47°58' W 122°14'0 0.0
2012-Jul-08 23:33N 47°58' W 122°14'0 0.0
2012-Jul-08 22:33N 47°58' W 122°14'0 0.0
2012-Jul-08 21:33N 47°58' W 122°14'0 0.0
2012-Jul-08 20:33N 47°58' W 122°14'0 0.0
2012-Jul-08 19:33N 47°58' W 122°14'0 0.0
2012-Jul-08 18:33N 47°58' W 122°14'0 0.0
2012-Jul-08 17:33N 47°58' W 122°14'0 0.0
2012-Jul-08 16:33N 47°58' W 122°14'0 0.0
2012-Jul-08 15:33N 47°58' W 122°14'0 0.0
2012-Jul-08 14:33N 47°58' W 122°14'0 0.0
2012-Jul-08 13:33N 47°58' W 122°14'0 0.0
2012-Jul-08 12:33N 47°58' W 122°14'0 0.0
2012-Jul-08 11:33N 47°58' W 122°14'0 0.0
2012-Jul-08 10:35N 47°58' W 122°14'0 0.0
2012-Jul-08 09:33N 47°58' W 122°14'0 0.0
2012-Jul-08 08:33N 47°58' W 122°14'0 0.0
2012-Jul-08 07:33N 47°58' W 122°14'0 0.0
2012-Jul-08 06:33N 47°58' W 122°14'0 0.0
2012-Jul-08 05:33N 47°58' W 122°14'0 0.0
2012-Jul-08 04:37N 47°58' W 122°14'0 0.0
2012-Jul-08 03:33N 47°58' W 122°14'0 0.0
2012-Jul-08 02:33N 47°58' W 122°14'0 0.0
2012-Jul-08 01:33N 47°58' W 122°14'0 0.0
2012-Jul-08 00:33N 47°58' W 122°14'0 0.0
2012-Jul-07 23:33N 47°58' W 122°14'0 0.0
2012-Jul-07 22:33N 47°58' W 122°14'0 0.0
2012-Jul-07 21:33N 47°58' W 122°14'0 0.0
2012-Jul-07 20:33N 47°58' W 122°14'0 0.0
2012-Jul-07 19:33N 47°58' W 122°14'0 0.0
2012-Jul-07 18:33N 47°58' W 122°14'0 0.0
2012-Jul-07 17:33N 47°58' W 122°14'0 0.0
2012-Jul-07 16:33N 47°58' W 122°14'0 0.0
2012-Jul-07 15:33N 47°58' W 122°14'0 0.0
2012-Jul-07 14:33N 47°58' W 122°14'0 0.0
2012-Jul-07 13:33N 47°58' W 122°14'0 0.0
2012-Jul-07 12:33N 47°58' W 122°14'0 0.0
2012-Jul-07 11:33N 47°58' W 122°14'0 0.0
2012-Jul-07 10:35N 47°58' W 122°14'0 0.0
2012-Jul-07 09:33N 47°58' W 122°14'0 0.0
2012-Jul-07 08:33N 47°58' W 122°14'0 0.0
2012-Jul-07 07:33N 47°58' W 122°14'0 0.0
2012-Jul-07 06:33N 47°58' W 122°14'0 0.0
2012-Jul-07 05:33N 47°58' W 122°14'0 0.0
2012-Jul-07 04:37N 47°58' W 122°14'0 0.0
2012-Jul-07 03:33N 47°58' W 122°14'0 0.0
2012-Jul-07 02:33N 47°58' W 122°14'0 0.0
2012-Jul-07 01:33N 47°58' W 122°14'0 0.0
2012-Jul-07 00:33N 47°58' W 122°14'0 0.0
2012-Jul-06 23:33N 47°58' W 122°14'0 0.0
2012-Jul-06 22:33N 47°58' W 122°14'0 0.0
2012-Jul-06 21:33N 47°58' W 122°14'  

Dump ship's entire track history

sailing weather and tide predictions

Tuuq — WDG4551 — position and weather